Saint George's, Grenada
Current Conditions -  °F | °C
As of 5:00 AM on Saturday 25 Oct 2014 (Local Time) from TGPY Reporting Station
Few Clouds Few Clouds  
Wind Chill: 81°   Ceiling: Unl
Heat Index: 86°   Visibility: 6mi
Dew Point: 75°   Wind: 9mph
Humidity: 84%   Direction: 100°E
Pressure: 29.8"   Gusts: NA
Location:  12.07°N, 61.74°W
Report Text: TGPY 250900Z 10008KT 9999 FEW018 27/24 Q1009
Loading
Personal Weather Stations






























Interactive Weather Map
Tropical Storm Tracking
New forecast layout! Learn more

10-Day Weather Forecast

Advertisements
Track Severe Weather on mobile